Time;durP1;ratioP1;P1;durP2;ratioP2;P2;SDS_P1;SDS_P2;PMS_P1;PMS_P2;Temp;Humidity;BMP_temperature;BMP_pressure;BME280_temperature;BME280_humidity;BME280_pressure;Samples;Min_cycle;Max_cycle;Signal;HPM_P1;HPM_P2
2022/07/21 00:01:08;;;;;;;;;6.00;3.25;;;;;20.63;68.79;101133.69;4971814;28;45581;-78
2022/07/21 00:03:33;;;;;;;;;4.00;3.00;;;;;20.73;68.77;101145.72;4970314;28;46150;-77
2022/07/21 00:06:00;;;;;;;;;2.50;2.50;;;;;20.81;68.64;101149.81;4969757;28;45763;-78
2022/07/21 00:08:26;;;;;;;;;2.00;2.00;;;;;20.82;68.39;101151.56;4970411;28;45479;-78
2022/07/21 00:10:52;;;;;;;;;3.25;3.25;;;;;20.81;68.64;101139.06;4969285;28;45673;-79
2022/07/21 00:13:18;;;;;;;;;3.00;3.00;;;;;20.79;68.97;101135.59;4954609;28;46010;-78
2022/07/21 00:15:43;;;;;;;;;2.00;2.00;;;;;20.76;68.36;101125.88;4975002;28;45995;-78
2022/07/21 00:18:09;;;;;;;;;2.00;2.00;;;;;20.82;68.44;101130.06;4970199;28;45463;-78
2022/07/21 00:20:34;;;;;;;;;2.75;2.75;;;;;20.74;68.46;101125.06;4969135;28;45747;-78
2022/07/21 00:22:59;;;;;;;;;6.25;3.00;;;;;20.83;68.49;101132.66;4969737;28;45766;-77
2022/07/21 00:25:25;;;;;;;;;2.25;2.00;;;;;20.81;68.26;101128.31;4947858;28;45438;-78
2022/07/21 00:27:51;;;;;;;;;2.00;2.00;;;;;20.82;68.39;101132.75;4970027;28;45543;-78
2022/07/21 00:30:16;;;;;;;;;3.25;3.25;;;;;20.65;68.34;101113.03;4969623;28;45447;-78
2022/07/21 00:32:43;;;;;;;;;3.25;3.00;;;;;20.81;68.64;101133.69;4967771;28;45508;-77
2022/07/21 00:35:10;;;;;;;;;3.75;3.75;;;;;20.76;68.47;101125.88;4972543;28;45433;-77
2022/07/21 00:37:36;;;;;;;;;3.75;3.75;;;;;20.76;68.46;101136.63;4970327;28;45480;-78
2022/07/21 00:40:03;;;;;;;;;2.00;2.00;;;;;20.61;68.58;101119.47;4950405;28;45618;-78
2022/07/21 00:42:30;;;;;;;;;3.00;3.00;;;;;20.73;68.55;101140.34;4969016;28;45473;-76
2022/07/21 00:44:56;;;;;;;;;3.50;3.00;;;;;20.71;68.63;101144.94;4967406;28;45613;-76
2022/07/21 00:47:24;;;;;;;;;2.25;2.25;;;;;20.71;69.00;101136.88;4970173;28;45512;-78
2022/07/21 00:49:49;;;;;;;;;4.00;2.75;;;;;20.69;68.82;101135.22;4972816;28;45369;-77
2022/07/21 00:52:15;;;;;;;;;3.75;2.00;;;;;20.70;68.55;101135.13;4973940;28;45413;-76
2022/07/21 00:54:41;;;;;;;;;2.00;2.00;;;;;20.63;68.53;101125.63;4970585;28;45804;-77
2022/07/21 00:57:07;;;;;;;;;7.00;3.00;;;;;20.62;69.06;101131.97;4975578;28;45578;-78
2022/07/21 00:59:32;;;;;;;;;2.75;2.50;;;;;20.61;68.84;101132.03;4953783;28;45679;-76
2022/07/21 01:01:57;;;;;;;;;2.00;2.00;;;;;20.61;69.29;101132.91;4968294;28;46077;-77
2022/07/21 01:04:23;;;;;;;;;3.50;3.00;;;;;20.58;69.15;101138.44;4970128;28;45510;-78
2022/07/21 01:06:48;;;;;;;;;6.00;3.75;;;;;20.34;69.21;101098.50;4974352;28;45517;-78
2022/07/21 01:09:14;;;;;;;;;5.00;4.00;;;;;20.52;69.40;101138.75;4968141;28;45607;-78
2022/07/21 01:11:40;;;;;;;;;3.50;3.25;;;;;20.49;69.31;101130.88;4971299;28;45776;-77
2022/07/21 01:14:06;;;;;;;;;4.00;4.00;;;;;20.39;69.34;101117.94;4967937;28;46274;-77
2022/07/21 01:16:31;;;;;;;;;8.00;4.25;;;;;20.48;69.67;101137.19;4968866;28;45507;-78
2022/07/21 01:18:57;;;;;;;;;2.75;2.75;;;;;20.46;69.57;101136.41;4969160;28;45534;-78
2022/07/21 01:21:38;;;;;;;;;5.00;3.75;;;;;20.43;69.81;101140.09;4968738;28;46332;-79
2022/07/21 01:24:05;;;;;;;;;4.50;3.00;;;;;20.36;69.60;101128.84;4967413;28;45495;-79
2022/07/21 01:26:39;;;;;;;;;3.75;3.75;;;;;20.40;69.69;101140.28;4969611;28;46766;-78
2022/07/21 01:29:04;;;;;;;;;4.00;4.00;;;;;20.40;69.89;101140.28;4969353;28;45603;-78
2022/07/21 01:31:30;;;;;;;;;5.50;4.00;;;;;20.39;69.99;101139.41;4950868;28;45979;-78
2022/07/21 01:33:55;;;;;;;;;2.00;2.00;;;;;20.38;69.80;101134.13;4970403;28;45527;-78
2022/07/21 01:36:20;;;;;;;;;3.75;3.00;;;;;20.34;69.98;101119.13;4970145;28;45543;-78
2022/07/21 01:41:50;;;;;;;;;4.75;4.00;;;;;20.35;70.07;101121.72;4905514;28;45489;-78
2022/07/21 01:44:15;;;;;;;;;3.50;3.50;;;;;20.34;70.18;101109.25;4903291;28;45598;-78
2022/07/21 01:46:45;;;;;;;;;3.00;3.00;;;;;20.30;70.01;101106.81;4898906;28;45570;-79
2022/07/21 01:49:13;;;;;;;;;3.00;2.75;;;;;20.37;70.14;101113.59;4901821;28;45515;-78
2022/07/21 01:51:39;;;;;;;;;4.00;3.00;;;;;20.34;69.68;101125.34;4900679;28;46200;-78
2022/07/21 01:54:06;;;;;;;;;6.75;6.75;;;;;20.32;69.97;101118.34;4899169;28;45575;-77
2022/07/21 01:56:33;;;;;;;;;8.00;6.00;;;;;20.30;69.89;101118.44;4907404;28;45651;-78
2022/07/21 01:58:58;;;;;;;;;7.00;7.00;;;;;20.31;70.08;101130.03;4898540;28;45608;-77
2022/07/21 02:01:28;;;;;;;;;7.00;4.75;;;;;20.25;69.82;101120.47;4897367;28;46457;-78
2022/07/21 02:03:56;;;;;;;;;4.75;4.00;;;;;20.20;70.43;101117.16;4899722;28;45550;-78
2022/07/21 02:06:21;;;;;;;;;6.50;4.00;;;;;20.15;70.18;101113.88;4904890;28;45492;-78
2022/07/21 02:08:46;;;;;;;;;5.00;5.00;;;;;20.15;70.05;101119.22;4901084;28;45529;-78
2022/07/21 02:11:13;;;;;;;;;13.75;10.50;;;;;20.24;70.10;101140.22;4884841;28;45676;-77
2022/07/21 02:13:39;;;;;;;;;20.75;16.00;;;;;20.23;70.11;101143.84;4965608;28;45468;-77
2022/07/21 02:16:05;;;;;;;;;5.00;5.00;;;;;20.19;70.11;101139.56;4969705;28;45523;-77
2022/07/21 02:18:30;;;;;;;;;3.75;3.75;;;;;20.18;69.75;101137.84;4967881;28;45533;-78
2022/07/21 02:20:56;;;;;;;;;10.75;8.50;;;;;20.17;70.18;101144.16;4952696;28;47801;-77
2022/07/21 02:23:22;;;;;;;;;9.00;7.00;;;;;20.15;69.94;101146.06;4966954;28;45593;-78
2022/07/21 02:25:48;;;;;;;;;5.25;5.25;;;;;20.08;69.82;101139.25;4967849;28;45559;-78
2022/07/21 02:28:14;;;;;;;;;7.50;6.50;;;;;20.11;69.68;101134.59;4966335;28;45499;-78
2022/07/21 02:30:39;;;;;;;;;8.00;8.00;;;;;20.06;69.74;101125.94;4968272;28;46331;-77
2022/07/21 02:33:05;;;;;;;;;8.75;7.00;;;;;20.08;69.74;101140.13;4969418;28;45572;-79
2022/07/21 02:35:31;;;;;;;;;6.25;6.25;;;;;19.96;69.66;101125.50;4970354;28;45507;-77
2022/07/21 02:37:56;;;;;;;;;7.00;7.00;;;;;20.06;69.86;101142.88;4972007;28;45498;-78
2022/07/21 02:40:22;;;;;;;;;7.25;7.00;;;;;20.02;69.43;101133.25;4949254;28;47153;-78
2022/07/21 02:42:47;;;;;;;;;14.00;12.50;;;;;19.96;69.72;101128.19;4967682;28;45472;-78
2022/07/21 02:45:13;;;;;;;;;9.25;9.25;;;;;19.92;69.75;101118.59;4970009;28;45493;-79
2022/07/21 02:47:47;;;;;;;;;13.50;12.50;;;;;20.03;69.68;101148.41;4969071;28;45551;-78
2022/07/21 02:50:13;;;;;;;;;8.75;8.75;;;;;19.96;69.69;101138.91;4966048;28;46378;-79
2022/07/21 02:52:38;;;;;;;;;11.00;9.00;;;;;19.93;69.55;101141.75;4966942;28;45581;-77
2022/07/21 02:55:04;;;;;;;;;8.25;8.25;;;;;19.97;69.56;101151.41;4968757;28;45500;-78
2022/07/21 02:57:29;;;;;;;;;11.00;9.00;;;;;19.92;69.79;101145.41;4967570;28;45732;-78
2022/07/21 02:59:54;;;;;;;;;13.50;13.00;;;;;19.99;69.82;101159.38;4965121;28;46277;-78
2022/07/21 03:02:19;;;;;;;;;10.25;9.00;;;;;19.96;69.88;101151.47;4967332;28;45598;-78
2022/07/21 03:04:45;;;;;;;;;14.00;11.50;;;;;19.95;69.87;101153.31;4968601;28;45514;-77
2022/07/21 03:07:10;;;;;;;;;15.00;14.00;;;;;19.91;70.17;101154.41;4969230;28;45512;-78
2022/07/21 03:09:35;;;;;;;;;7.00;7.00;;;;;19.93;70.03;101155.16;4969427;28;46123;-79
2022/07/21 03:12:01;;;;;;;;;10.25;8.00;;;;;19.91;70.41;101154.41;4971293;28;45452;-77
2022/07/21 03:14:26;;;;;;;;;10.50;9.00;;;;;19.88;70.70;101154.53;4954123;28;45557;-78
2022/07/21 03:16:51;;;;;;;;;8.00;7.75;;;;;19.90;70.83;101171.41;4972025;28;45599;-78
2022/07/21 03:19:17;;;;;;;;;8.25;8.00;;;;;19.88;71.00;101165.28;4969884;28;46014;-78
2022/07/21 03:21:42;;;;;;;;;7.00;7.00;;;;;19.69;70.75;101138.44;4972251;28;45606;-78
2022/07/21 03:24:07;;;;;;;;;8.50;8.50;;;;;19.67;70.96;101141.22;4970237;28;45558;-79
2022/07/21 03:26:38;;;;;;;;;1.25;1.25;;;;;19.78;71.19;101164.84;4974312;28;45638;-78
2022/07/21 03:29:03;;;;;;;;;9.25;8.00;;;;;19.74;71.40;101168.59;4971953;28;46353;-79
2022/07/21 03:31:29;;;;;;;;;10.00;9.00;;;;;19.70;71.13;101167.88;4970939;28;45480;-79
2022/07/21 03:33:54;;;;;;;;;13.25;11.00;;;;;19.68;71.48;101168.91;4971547;28;45495;-78
2022/07/21 03:36:22;;;;;;;;;11.50;10.25;;;;;19.68;71.75;101169.78;4972464;28;45636;-78
2022/07/21 03:38:47;;;;;;;;;10.75;9.75;;;;;19.66;71.80;101177.03;4954121;28;47341;-78
2022/07/21 03:41:13;;;;;;;;;7.00;7.00;;;;;19.56;71.82;101164.16;4970259;28;45688;-78
2022/07/21 03:43:38;;;;;;;;;10.50;10.50;;;;;19.43;72.22;101145.09;4970315;28;45444;-78
2022/07/21 03:46:03;;;;;;;;;11.75;9.75;;;;;19.46;72.54;101161.03;4973159;28;45451;-78
2022/07/21 03:48:29;;;;;;;;;9.25;8.25;;;;;19.56;72.70;101185.59;4969861;28;46482;-78
2022/07/21 03:50:54;;;;;;;;;12.00;10.50;;;;;19.55;73.01;101192.75;4951862;28;45576;-78
2022/07/21 03:53:19;;;;;;;;;12.25;10.25;;;;;19.52;72.67;101184.84;4971956;28;45603;-78
2022/07/21 03:55:45;;;;;;;;;9.50;9.50;;;;;19.49;72.80;101185.00;4969369;28;45706;-78
2022/07/21 03:58:11;;;;;;;;;9.00;9.00;;;;;19.42;72.78;101178.19;4954129;28;46294;-78
2022/07/21 04:00:42;;;;;;;;;17.50;13.75;;;;;19.33;72.87;101164.28;4969664;28;45688;-77
2022/07/21 04:03:08;;;;;;;;;13.00;12.00;;;;;19.41;72.88;101187.19;4971208;28;45578;-79
2022/07/21 04:05:34;;;;;;;;;10.75;10.75;;;;;19.39;72.73;101186.38;4975848;28;45597;-77
2022/07/21 04:07:59;;;;;;;;;16.50;14.50;;;;;19.42;72.88;101197.84;4961414;28;45721;-78
2022/07/21 04:10:28;;;;;;;;;17.75;15.00;;;;;19.41;72.87;101188.03;4974320;28;45540;-78
2022/07/21 04:12:55;;;;;;;;;14.50;14.00;;;;;19.34;72.93;101192.84;4969667;28;45587;-77
2022/07/21 04:15:21;;;;;;;;;13.50;13.00;;;;;19.40;72.78;101196.16;4971359;28;45619;-77
2022/07/21 04:17:47;;;;;;;;;17.25;17.25;;;;;19.39;72.73;101194.41;4950857;28;47327;-78
2022/07/21 04:20:14;;;;;;;;;16.25;15.75;;;;;19.37;72.94;101201.66;4971850;28;45531;-79
2022/07/21 04:22:42;;;;;;;;;16.25;15.75;;;;;19.30;72.84;101191.25;4969502;28;45589;-76
2022/07/21 04:25:09;;;;;;;;;17.25;17.25;;;;;19.38;73.18;101201.59;4970925;28;45979;-79
2022/07/21 04:27:36;;;;;;;;;20.00;19.50;;;;;19.34;72.65;101191.94;4952339;28;47046;-77
2022/07/21 04:30:03;;;;;;;;;19.50;16.00;;;;;19.43;72.79;101201.38;4969183;28;45555;-78
2022/07/21 04:32:28;;;;;;;;;21.75;19.25;;;;;19.47;72.93;101213.69;4971305;28;45721;-77
2022/07/21 04:34:54;;;;;;;;;15.50;15.00;;;;;19.49;72.96;101211.81;4969315;28;45540;-78
2022/07/21 04:37:19;;;;;;;;;20.25;18.50;;;;;19.49;72.66;101207.31;4954504;28;45778;-77
2022/07/21 04:39:45;;;;;;;;;22.00;17.50;;;;;19.55;72.36;101213.34;4972419;28;45475;-78
2022/07/21 04:42:10;;;;;;;;;16.25;14.50;;;;;19.62;72.07;101202.25;4971728;28;45503;-77
2022/07/21 04:44:35;;;;;;;;;20.25;15.25;;;;;19.61;72.09;101200.50;4969413;28;45487;-77
2022/07/21 04:47:01;;;;;;;;;21.00;21.00;;;;;19.68;71.86;101201.09;4970604;28;46003;-78
2022/07/21 04:49:26;;;;;;;;;20.00;15.75;;;;;19.61;71.89;101188.91;4967915;28;45567;-78
2022/07/21 04:51:51;;;;;;;;;19.50;18.00;;;;;19.66;71.58;101187.75;4950510;28;45596;-78
2022/07/21 04:54:17;;;;;;;;;21.50;18.25;;;;;19.83;71.77;101210.22;4950894;28;45622;-77
2022/07/21 04:56:43;;;;;;;;;20.75;20.50;;;;;19.86;70.91;101216.31;4969931;28;45450;-76
2022/07/21 04:59:09;;;;;;;;;15.50;15.50;;;;;19.82;70.99;101198.63;4970022;28;45545;-79
2022/07/21 05:01:36;;;;;;;;;22.50;19.75;;;;;19.90;70.76;101194.69;4968905;28;45479;-79
2022/07/21 05:04:01;;;;;;;;;18.75;17.25;;;;;20.01;70.86;101217.38;4950897;28;45433;-78
2022/07/21 05:06:27;;;;;;;;;16.00;16.00;;;;;20.06;70.17;101223.38;4969719;28;45480;-79
2022/07/21 05:08:52;;;;;;;;;18.25;16.50;;;;;20.09;70.16;101216.09;4967499;28;45516;-78
2022/07/21 05:11:18;;;;;;;;;20.50;17.00;;;;;20.12;69.98;101216.84;4972692;28;45551;-78
2022/07/21 05:13:43;;;;;;;;;18.00;14.00;;;;;20.21;70.18;101210.16;4966297;28;45750;-77
2022/07/21 05:16:08;;;;;;;;;15.75;15.75;;;;;20.26;69.64;101212.59;4969446;28;46395;-77
2022/07/21 05:18:34;;;;;;;;;19.25;19.25;;;;;20.41;69.35;101215.34;4968684;28;45463;-79
2022/07/21 05:20:59;;;;;;;;;20.25;18.25;;;;;20.63;69.77;101219.59;4968018;28;45936;-78
2022/07/21 05:23:25;;;;;;;;;21.50;18.00;;;;;21.02;68.37;101215.81;4965861;28;45544;-80
2022/07/21 05:25:50;;;;;;;;;16.25;15.75;;;;;21.44;66.82;101198.28;4966243;28;46517;-80
2022/07/21 05:28:15;;;;;;;;;16.75;16.75;;;;;22.07;64.60;101220.75;4965249;28;45556;-79
2022/07/21 05:30:40;;;;;;;;;20.75;17.25;;;;;22.49;62.70;101211.13;4967578;28;45582;-81
2022/07/21 05:33:06;;;;;;;;;18.00;17.25;;;;;22.88;61.50;101208.78;4965040;28;45647;-81
2022/07/21 05:35:31;;;;;;;;;21.75;17.25;;;;;23.30;60.42;101220.56;4949429;28;46917;-80
2022/07/21 05:37:57;;;;;;;;;18.75;18.75;;;;;23.36;59.31;101203.97;4962373;28;45490;-80
2022/07/21 05:40:22;;;;;;;;;20.50;18.25;;;;;23.72;58.36;101215.22;4973259;28;45636;-80
2022/07/21 05:42:47;;;;;;;;;17.00;15.75;;;;;23.92;58.40;101211.22;4956075;28;45603;-79
2022/07/21 05:45:13;;;;;;;;;16.25;16.25;;;;;24.33;56.86;101221.06;4964572;28;46247;-80
2022/07/21 05:47:39;;;;;;;;;17.75;17.75;;;;;24.54;56.66;101215.19;4948410;28;45565;-79
2022/07/21 05:50:06;;;;;;;;;20.00;18.25;;;;;24.48;55.96;101222.72;4965727;28;45550;-79
2022/07/21 05:52:31;;;;;;;;;17.75;16.50;;;;;24.34;55.85;101227.31;4966723;28;45568;-79
2022/07/21 05:54:56;;;;;;;;;18.50;15.50;;;;;24.27;56.19;101222.34;4963946;28;45429;-80
2022/07/21 05:57:22;;;;;;;;;17.00;17.00;;;;;24.15;56.34;101225.03;4966089;28;45553;-79
2022/07/21 05:59:47;;;;;;;;;16.50;16.50;;;;;23.99;56.65;101233.25;4966624;28;45535;-79
2022/07/21 06:02:13;;;;;;;;;17.75;16.00;;;;;23.77;57.06;101229.25;4969184;28;45558;-80
2022/07/21 06:04:39;;;;;;;;;15.00;13.25;;;;;23.63;57.84;101235.56;4963482;28;45597;-80
2022/07/21 06:07:05;;;;;;;;;17.00;17.00;;;;;23.42;57.99;101221.59;4967472;28;45575;-81
2022/07/21 06:09:30;;;;;;;;;18.50;17.00;;;;;23.41;58.47;101234.25;4965768;28;45539;-79
2022/07/21 06:11:55;;;;;;;;;22.25;18.25;;;;;23.28;58.39;101243.22;4975026;28;45481;-80
2022/07/21 06:14:21;;;;;;;;;18.50;16.75;;;;;23.15;59.32;101248.50;4966711;28;46347;-80
2022/07/21 06:16:46;;;;;;;;;19.00;16.75;;;;;23.08;59.20;101242.59;4965867;28;45539;-80
2022/07/21 06:19:12;;;;;;;;;23.00;18.50;;;;;22.95;59.56;101223.59;4966802;28;45796;-80
2022/07/21 06:21:37;;;;;;;;;18.25;16.25;;;;;23.00;59.47;101239.50;4965471;28;45731;-80
2022/07/21 06:24:03;;;;;;;;;20.75;18.00;;;;;22.98;59.84;101242.28;4931505;28;47536;-80
2022/07/21 06:26:28;;;;;;;;;16.25;15.75;;;;;23.02;59.89;101249.22;4966766;28;45557;-80
2022/07/21 06:28:54;;;;;;;;;17.00;17.00;;;;;22.98;59.88;101247.66;4965809;28;45577;-80
2022/07/21 06:31:19;;;;;;;;;20.50;17.75;;;;;22.86;60.17;101249.28;4962524;28;45409;-79
2022/07/21 06:33:45;;;;;;;;;18.75;18.00;;;;;22.78;59.92;101237.25;4967260;28;45515;-80
2022/07/21 06:36:10;;;;;;;;;22.25;17.75;;;;;22.78;60.55;101254.28;4966762;28;45552;-79
2022/07/21 06:38:36;;;;;;;;;21.50;17.50;;;;;22.77;60.47;101249.00;4949449;28;45559;-79
2022/07/21 06:41:02;;;;;;;;;19.50;16.50;;;;;22.85;60.46;101252.97;4970158;28;45626;-80
2022/07/21 06:43:27;;;;;;;;;14.50;14.00;;;;;22.84;60.22;101235.03;4971067;28;45641;-79
2022/07/21 06:45:52;;;;;;;;;15.50;15.50;;;;;22.44;60.24;101162.06;4967740;28;45612;-79
2022/07/21 06:48:18;;;;;;;;;15.75;15.75;;;;;23.01;59.89;101252.88;4966724;28;45558;-79
2022/07/21 06:50:43;;;;;;;;;17.50;15.75;;;;;23.15;59.52;101254.75;4968802;28;45558;-79
2022/07/21 06:53:09;;;;;;;;;18.25;16.00;;;;;23.41;59.67;101254.94;4966677;28;45658;-79
2022/07/21 06:55:36;;;;;;;;;22.00;19.25;;;;;23.68;59.22;101248.75;4965791;28;45508;-80
2022/07/21 06:58:12;;;;;;;;;17.50;16.00;;;;;23.97;58.01;101229.81;4968022;28;45554;-81
2022/07/21 07:00:38;;;;;;;;;20.00;17.25;;;;;24.19;56.53;101250.84;4947343;28;45715;-81
2022/07/21 07:03:03;;;;;;;;;16.50;16.00;;;;;23.99;56.38;101209.84;4967053;28;46132;-79
2022/07/21 07:05:30;;;;;;;;;17.00;14.00;;;;;24.23;56.70;101253.25;4968231;28;45498;-79
2022/07/21 07:07:57;;;;;;;;;21.75;19.00;;;;;24.15;56.05;101250.19;4970546;28;45515;-78
2022/07/21 07:10:23;;;;;;;;;18.25;18.25;;;;;24.15;56.65;101260.97;4967298;28;45555;-79
2022/07/21 07:12:48;;;;;;;;;15.75;15.25;;;;;24.12;56.24;101248.53;4966901;28;46053;-79
2022/07/21 07:15:13;;;;;;;;;15.25;14.25;;;;;24.07;56.74;101245.28;4966395;28;45416;-79
2022/07/21 07:17:39;;;;;;;;;14.50;14.50;;;;;24.08;56.79;101265.94;4966286;28;45489;-80
2022/07/21 07:20:08;;;;;;;;;15.00;15.00;;;;;24.04;57.14;101271.63;4948098;28;45749;-80
2022/07/21 07:22:33;;;;;;;;;17.25;16.00;;;;;23.93;57.07;101259.69;4965120;28;45587;-78
2022/07/21 07:24:59;;;;;;;;;20.00;17.75;;;;;23.89;57.15;101271.66;4964347;28;45612;-79
2022/07/21 07:27:24;;;;;;;;;18.50;18.50;;;;;23.91;57.20;101275.16;4950211;28;45509;-77
2022/07/21 07:29:50;;;;;;;;;17.00;14.25;;;;;23.93;57.98;101267.81;4945770;28;45639;-78
2022/07/21 07:32:15;;;;;;;;;18.50;18.00;;;;;23.93;57.41;101267.81;4964199;28;46184;-78
2022/07/21 07:34:40;;;;;;;;;18.75;17.50;;;;;23.95;56.99;101267.69;4964986;28;45517;-79
2022/07/21 07:37:06;;;;;;;;;17.75;16.00;;;;;23.86;57.33;101254.81;4965246;28;45653;-78
2022/07/21 07:39:32;;;;;;;;;13.00;13.00;;;;;23.95;57.63;101276.66;4962731;28;45447;-77
2022/07/21 07:41:57;;;;;;;;;17.00;16.00;;;;;23.98;57.21;101274.75;4947837;28;45667;-79
2022/07/21 07:44:22;;;;;;;;;20.25;19.00;;;;;24.04;57.89;101274.34;4971151;28;45619;-78
2022/07/21 07:46:48;;;;;;;;;21.25;19.00;;;;;24.11;56.89;101278.34;4962488;28;45519;-77
2022/07/21 07:49:14;;;;;;;;;17.75;15.50;;;;;24.10;57.33;101280.19;4963887;28;45714;-79
2022/07/21 07:51:39;;;;;;;;;16.50;16.50;;;;;24.12;56.55;101280.06;4965968;28;45611;-78
2022/07/21 07:54:05;;;;;;;;;21.00;19.25;;;;;24.07;56.87;101275.00;4950859;28;45599;-78
2022/07/21 07:56:31;;;;;;;;;14.75;14.50;;;;;24.24;57.09;101271.16;4967378;28;45684;-78
2022/07/21 07:58:56;;;;;;;;;20.75;19.50;;;;;24.51;56.56;101278.38;4967874;28;45619;-78
2022/07/21 08:01:22;;;;;;;;;16.75;15.25;;;;;24.77;55.95;101283.88;4966486;28;45582;-79
2022/07/21 08:03:47;;;;;;;;;9.00;8.00;;;;;24.84;55.09;101279.78;4969426;28;45759;-77
2022/07/21 08:06:13;;;;;;;;;19.75;17.75;;;;;24.76;55.29;101296.50;4950113;28;45532;-80
2022/07/21 08:08:38;;;;;;;;;18.00;17.50;;;;;24.85;55.15;101291.47;4966788;28;45586;-78
2022/07/21 08:11:04;;;;;;;;;17.25;16.25;;;;;24.85;54.67;101292.31;4966063;28;45731;-78
2022/07/21 08:13:30;;;;;;;;;18.00;17.00;;;;;24.86;54.82;101294.06;4970413;28;45593;-77
2022/07/21 08:15:55;;;;;;;;;19.75;16.00;;;;;24.91;54.57;101301.84;4952924;28;45563;-78
2022/07/21 08:18:22;;;;;;;;;19.50;18.25;;;;;24.88;54.82;101286.69;4970788;28;45726;-78
2022/07/21 08:20:48;;;;;;;;;18.25;18.25;;;;;24.95;54.71;101297.97;4963689;28;46231;-79
2022/07/21 08:23:15;;;;;;;;;18.75;17.00;;;;;24.96;54.66;101305.97;4969246;28;45665;-78
2022/07/21 08:25:42;;;;;;;;;20.75;18.75;;;;;24.90;54.59;101306.41;4968924;28;45591;-78
2022/07/21 08:28:08;;;;;;;;;23.50;20.00;;;;;24.96;54.88;101305.06;4964764;28;45519;-77
2022/07/21 08:30:34;;;;;;;;;21.75;18.50;;;;;24.99;54.11;101311.16;4971069;28;46294;-78
2022/07/21 08:33:00;;;;;;;;;24.75;18.75;;;;;25.03;54.27;101305.53;4970396;28;45599;-78
2022/07/21 08:35:27;;;;;;;;;18.75;16.75;;;;;25.15;54.19;101305.53;4968268;28;45446;-78
2022/07/21 08:38:02;;;;;;;;;19.50;18.25;;;;;25.34;53.88;101309.66;4969899;28;45420;-78
2022/07/21 08:40:31;;;;;;;;;20.50;19.50;;;;;25.58;53.24;101312.47;4965652;28;45796;-79
2022/07/21 08:45:31;;;;;;;;;20.25;18.25;;;;;26.07;52.00;101308.06;5377219;22;45721;-79
2022/07/21 08:47:59;;;;;;;;;25.75;24.25;;;;;26.31;51.68;101294.50;4986425;28;45650;-78
2022/07/21 08:50:27;;;;;;;;;19.25;19.00;;;;;26.69;50.67;101296.22;4988159;28;45542;-78
2022/07/21 08:52:53;;;;;;;;;26.25;21.50;;;;;26.75;50.08;101297.56;4986398;28;45502;-78
2022/07/21 08:55:19;;;;;;;;;18.75;18.00;;;;;26.88;49.44;101308.34;4986951;28;45510;-78
2022/07/21 08:57:44;;;;;;;;;20.75;20.00;;;;;26.86;49.19;101310.28;4988043;28;45527;-78
2022/07/21 09:00:10;;;;;;;;;16.00;15.25;;;;;26.89;49.46;101312.75;4984778;28;46175;-77
2022/07/21 09:02:37;;;;;;;;;23.50;20.00;;;;;26.91;49.56;101308.94;4985853;28;45574;-78
2022/07/21 09:05:07;;;;;;;;;19.50;16.25;;;;;26.94;49.07;101299.72;4985080;28;45554;-79
2022/07/21 09:07:50;;;;;;;;;21.75;18.75;;;;;27.03;48.67;101301.69;4987925;28;45559;-78
2022/07/21 09:10:22;;;;;;;;;20.25;19.25;;;;;27.26;48.82;101294.47;4985101;28;45545;-78
2022/07/21 09:12:50;;;;;;;;;23.75;20.25;;;;;27.79;47.92;101306.59;4988537;28;45504;-76
2022/07/21 09:15:20;;;;;;;;;18.50;14.75;;;;;27.90;47.18;101279.41;4982737;28;45574;-77
2022/07/21 09:18:02;;;;;;;;;19.50;19.00;;;;;28.12;46.39;101289.38;4989376;28;45684;-79
2022/07/21 09:20:27;;;;;;;;;24.75;20.75;;;;;28.29;45.77;101292.56;4987224;28;45683;-76
2022/07/21 09:23:03;;;;;;;;;19.00;18.00;;;;;28.41;45.70;101305.09;4989399;28;45698;-78
2022/07/21 09:25:34;;;;;;;;;13.00;11.50;;;;;29.15;45.23;101293.38;4983890;28;45630;-78
2022/07/21 09:28:27;;;;;;;;;19.75;19.75;;;;;29.86;43.26;101295.28;4986869;28;45640;-78
2022/07/21 09:31:07;;;;;;;;;18.00;16.00;;;;;29.82;43.45;101296.56;4983628;28;46216;-78
2022/07/21 09:33:38;;;;;;;;;15.25;14.75;;;;;29.72;42.58;101287.47;4989382;28;45413;-81
2022/07/21 09:36:08;;;;;;;;;17.00;13.50;;;;;29.62;42.40;101309.19;4988422;28;45482;-82
2022/07/21 09:38:36;;;;;;;;;16.00;13.75;;;;;29.62;43.19;101294.75;4989188;28;45600;-81
2022/07/21 09:41:19;;;;;;;;;13.00;13.00;;;;;30.12;42.19;101303.81;4995284;28;46688;-81
2022/07/21 09:43:47;;;;;;;;;14.00;13.00;;;;;30.64;40.64;101306.28;4991180;28;45578;-78
2022/07/21 09:46:24;;;;;;;;;16.75;15.75;;;;;30.91;40.54;101307.41;4966692;28;45473;-79
2022/07/21 09:48:51;;;;;;;;;16.00;15.25;;;;;31.12;40.07;101312.69;4969686;28;45526;-75
2022/07/21 09:51:37;;;;;;;;;15.00;11.50;;;;;31.23;39.86;101308.09;4969261;28;45625;-77
2022/07/21 09:54:09;;;;;;;;;14.50;13.50;;;;;31.67;39.57;101301.06;4967837;28;45546;-79
2022/07/21 09:56:38;;;;;;;;;17.00;14.75;;;;;32.22;38.78;101299.28;4970100;28;45548;-76
2022/07/21 09:59:05;;;;;;;;;14.00;14.00;;;;;32.62;37.53;101300.69;4969308;28;45683;-78
2022/07/21 10:01:31;;;;;;;;;13.25;12.00;;;;;32.89;36.39;101291.53;4971303;28;46495;-79
2022/07/21 10:03:59;;;;;;;;;17.00;14.00;;;;;33.22;36.04;101285.44;4968458;28;45561;-77
2022/07/21 10:06:31;;;;;;;;;17.75;16.50;;;;;33.67;36.18;101295.25;4971878;28;45554;-77
2022/07/21 10:08:58;;;;;;;;;12.75;12.75;;;;;33.90;34.66;101289.19;4965991;28;45497;-77
2022/07/21 10:11:26;;;;;;;;;16.75;16.25;;;;;34.10;34.92;101271.44;4971256;28;45499;-77
2022/07/21 10:13:52;;;;;;;;;17.00;16.00;;;;;34.43;33.93;101276.97;4967715;28;45583;-76
2022/07/21 10:16:19;;;;;;;;;16.00;14.00;;;;;34.76;32.79;101285.22;4970926;28;45498;-77
2022/07/21 10:18:52;;;;;;;;;13.25;11.75;;;;;34.89;32.67;101279.19;4969755;28;45475;-77
2022/07/21 10:21:40;;;;;;;;;16.50;15.25;;;;;35.33;32.24;101288.91;4970532;28;46340;-77
2022/07/21 10:24:11;;;;;;;;;16.50;16.00;;;;;35.76;32.19;101275.69;4963507;28;45811;-78
2022/07/21 10:26:38;;;;;;;;;16.25;14.25;;;;;35.72;31.89;101257.84;4967178;28;45519;-79
2022/07/21 10:29:04;;;;;;;;;12.75;12.50;;;;;35.26;31.45;101285.09;4968816;28;45396;-77
2022/07/21 10:31:29;;;;;;;;;16.25;13.00;;;;;35.14;32.15;101293.75;4965337;28;45686;-77
2022/07/21 10:33:58;;;;;;;;;14.25;13.50;;;;;35.51;31.80;101295.00;4965627;28;45460;-80
2022/07/21 10:36:26;;;;;;;;;15.00;14.00;;;;;35.72;32.43;101294.41;4967981;28;45686;-79
2022/07/21 10:39:15;;;;;;;;;16.00;16.00;;;;;35.40;32.02;101289.91;4968071;28;45581;-80
2022/07/21 10:42:05;;;;;;;;;14.50;13.75;;;;;35.06;32.35;101238.84;4967696;28;46072;-79
2022/07/21 10:44:38;;;;;;;;;16.50;16.00;;;;;35.59;31.34;101294.13;4969482;28;45619;-78
2022/07/21 10:47:18;;;;;;;;;12.00;12.00;;;;;35.51;31.85;101296.91;4971100;28;45776;-78
2022/07/21 10:49:57;;;;;;;;;16.25;14.50;;;;;35.73;31.05;101293.38;4971087;28;45490;-79
2022/07/21 10:52:35;;;;;;;;;11.50;11.50;;;;;35.89;31.32;101291.59;4964345;28;46089;-80
2022/07/21 10:55:28;;;;;;;;;11.50;11.50;;;;;36.02;31.37;101299.28;4966323;28;45676;-80
2022/07/21 10:58:14;;;;;;;;;13.00;12.75;;;;;36.14;30.12;101291.44;4970342;28;45545;-81
2022/07/21 11:00:52;;;;;;;;;14.00;14.00;;;;;36.15;30.32;101238.16;4964236;28;45670;-80
2022/07/21 11:03:30;;;;;;;;;10.50;10.50;;;;;36.70;29.94;101288.47;4968535;28;46084;-78
2022/07/21 11:06:24;;;;;;;;;13.00;11.00;;;;;36.22;30.15;101286.75;4964026;28;45626;-80
2022/07/21 11:09:09;;;;;;;;;12.75;11.75;;;;;36.27;30.67;101283.47;4964578;28;45913;-79
2022/07/21 11:11:58;;;;;;;;;12.50;11.25;;;;;36.36;29.62;101276.88;4966150;28;45507;-80
2022/07/21 11:14:39;;;;;;;;;11.25;11.25;;;;;36.46;30.71;101268.38;4966308;28;45513;-78
2022/07/21 11:17:05;;;;;;;;;10.00;10.00;;;;;36.54;29.82;101282.06;4965299;28;45409;-79
2022/07/21 11:19:40;;;;;;;;;11.25;11.25;;;;;36.28;30.35;101285.22;4978328;28;45773;-77
2022/07/21 11:22:13;;;;;;;;;15.75;12.75;;;;;35.73;31.31;101287.03;4968546;28;45641;-77